Time;durP1;ratioP1;P1;durP2;ratioP2;P2;SDS_P1;SDS_P2;PMS_P1;PMS_P2;Temp;Humidity;BMP_temperature;BMP_pressure;BME280_temperature;BME280_humidity;BME280_pressure;Samples;Min_cycle;Max_cycle;Signal;HPM_P1;HPM_P2
2022/09/15 00:00:23;;;;;;;32.25;15.63;;;;;;;13.46;100.00;100594.50;4973785;28;20550;-69
2022/09/15 00:02:49;;;;;;;30.90;15.65;;;;;;;13.51;100.00;100596.81;4957435;28;20092;-69
2022/09/15 00:05:14;;;;;;;33.25;15.55;;;;;;;13.47;100.00;100601.56;4984838;28;20043;-70
2022/09/15 00:07:40;;;;;;;40.95;17.35;;;;;;;13.55;100.00;100597.41;4968603;28;20051;-69
2022/09/15 00:10:06;;;;;;;39.03;16.33;;;;;;;13.58;100.00;100602.53;4975712;28;20042;-69
2022/09/15 00:12:32;;;;;;;36.45;16.88;;;;;;;13.67;100.00;100599.13;4971762;28;20043;-69
2022/09/15 00:14:59;;;;;;;37.28;17.17;;;;;;;13.68;100.00;100608.88;4979094;28;20104;-68
2022/09/15 00:17:25;;;;;;;35.38;17.60;;;;;;;13.68;100.00;100599.00;4964844;28;20160;-69
2022/09/15 00:19:51;;;;;;;35.95;17.58;;;;;;;13.70;100.00;100599.75;4957641;28;20117;-69
2022/09/15 00:22:18;;;;;;;32.72;16.73;;;;;;;13.73;100.00;100588.75;4974524;28;20563;-68
2022/09/15 00:24:48;;;;;;;39.97;17.90;;;;;;;13.78;100.00;100584.88;4969306;28;20049;-68
2022/09/15 00:27:14;;;;;;;34.08;17.60;;;;;;;13.83;100.00;100582.66;4973913;28;20057;-69
2022/09/15 00:29:40;;;;;;;41.65;19.63;;;;;;;13.83;100.00;100571.94;4962531;28;20125;-67
2022/09/15 00:32:05;;;;;;;37.88;18.02;;;;;;;13.86;100.00;100579.75;4970283;28;20049;-68
2022/09/15 00:34:31;;;;;;;42.80;17.83;;;;;;;13.91;100.00;100573.03;4969437;28;20050;-69
2022/09/15 00:36:57;;;;;;;42.35;18.50;;;;;;;13.89;100.00;100574.97;4950671;28;20038;-70
2022/09/15 00:39:22;;;;;;;36.95;18.88;;;;;;;13.94;100.00;100577.28;4981543;28;20043;-69
2022/09/15 00:41:48;;;;;;;45.83;19.23;;;;;;;13.96;100.00;100570.81;4973330;28;20046;-68
2022/09/15 00:44:35;;;;;;;40.80;18.83;;;;;;;14.02;100.00;100573.97;4971459;28;20042;-68
2022/09/15 00:47:02;;;;;;;39.22;18.20;;;;;;;14.02;100.00;100582.88;4983939;28;20050;-69
2022/09/15 00:49:31;;;;;;;42.33;19.02;;;;;;;14.05;100.00;100577.22;4964272;28;20403;-69
2022/09/15 00:52:09;;;;;;;42.95;18.60;;;;;;;14.15;100.00;100582.69;4970005;28;20049;-69
2022/09/15 00:54:50;;;;;;;46.38;19.63;;;;;;;14.07;100.00;100577.97;4974646;28;20046;-70
2022/09/15 00:57:20;;;;;;;47.70;20.98;;;;;;;14.26;100.00;100585.38;4971666;28;20035;-69
2022/09/15 00:59:48;;;;;;;42.95;19.33;;;;;;;14.30;100.00;100584.09;4986687;28;20042;-69
2022/09/15 01:02:29;;;;;;;44.15;20.00;;;;;;;14.24;100.00;100585.47;4974205;28;20027;-68
2022/09/15 01:04:56;;;;;;;47.28;20.40;;;;;;;14.27;100.00;100586.22;4973720;28;20077;-70
2022/09/15 01:07:32;;;;;;;42.65;20.85;;;;;;;14.25;100.00;100589.84;4965637;28;20038;-70
2022/09/15 01:10:01;;;;;;;38.30;18.73;;;;;;;14.16;100.00;100593.31;4971386;28;20081;-69
2022/09/15 01:12:27;;;;;;;49.67;22.42;;;;;;;14.16;100.00;100587.97;4963243;28;20818;-69
2022/09/15 01:14:53;;;;;;;45.95;21.20;;;;;;;14.17;100.00;100592.34;4972314;28;20051;-69
2022/09/15 01:17:48;;;;;;;48.88;21.63;;;;;;;14.19;100.00;100593.03;4957822;28;20042;-70
2022/09/15 01:20:17;;;;;;;44.08;19.83;;;;;;;14.19;100.00;100589.50;4978215;28;20501;-68
2022/09/15 01:23:13;;;;;;;47.05;20.85;;;;;;;14.16;100.00;100587.97;4967786;28;20035;-69
2022/09/15 01:25:47;;;;;;;46.17;21.13;;;;;;;14.22;100.00;100591.97;4974887;28;20565;-68
2022/09/15 01:28:36;;;;;;;47.45;21.70;;;;;;;14.14;100.00;100581.84;4971693;28;20085;-71
2022/09/15 01:31:28;;;;;;;47.20;22.15;;;;;;;14.19;100.00;100589.50;4973712;28;20043;-70
2022/09/15 01:34:07;;;;;;;42.78;21.02;;;;;;;14.18;100.00;100579.78;4971693;28;20053;-70
2022/09/15 01:36:41;;;;;;;52.67;21.38;;;;;;;14.21;100.00;100587.56;4971838;28;20197;-68
2022/09/15 01:39:23;;;;;;;52.45;20.92;;;;;;;14.21;100.00;100587.56;4965061;28;20112;-68
2022/09/15 01:41:54;;;;;;;48.03;20.75;;;;;;;14.25;100.00;100581.81;4976999;28;20065;-69
2022/09/15 01:44:37;;;;;;;39.85;20.80;;;;;;;14.15;100.00;100583.53;4975384;28;20050;-69
2022/09/15 01:47:08;;;;;;;44.92;20.45;;;;;;;14.18;100.00;100585.13;4973360;28;20482;-69
2022/09/15 01:49:43;;;;;;;40.50;18.88;;;;;;;14.13;100.00;100580.16;4985785;28;20045;-69
2022/09/15 01:52:09;;;;;;;54.47;21.92;;;;;;;14.13;100.00;100582.84;4973004;28;20049;-69
2022/09/15 01:54:41;;;;;;;43.42;19.73;;;;;;;14.08;100.00;100584.19;4965554;28;20050;-70
2022/09/15 01:57:08;;;;;;;40.72;18.75;;;;;;;14.09;100.00;100591.25;4969009;28;20702;-69
2022/09/15 01:59:34;;;;;;;45.67;19.20;;;;;;;14.10;100.00;100577.72;4966213;28;20034;-68
2022/09/15 02:02:08;;;;;;;37.58;18.25;;;;;;;14.12;100.00;100575.78;4966703;28;20852;-70
2022/09/15 02:04:38;;;;;;;39.70;18.95;;;;;;;14.13;100.00;100579.31;4971150;28;20038;-69
2022/09/15 02:07:43;;;;;;;43.15;18.77;;;;;;;14.05;100.00;100577.22;4976047;28;20034;-69
2022/09/15 02:10:20;;;;;;;34.08;18.20;;;;;;;13.97;100.00;100577.03;4970092;28;20145;-69
2022/09/15 02:12:58;;;;;;;34.90;17.90;;;;;;;13.94;100.00;100578.13;4968642;28;20039;-69
2022/09/15 02:15:33;;;;;;;40.67;18.90;;;;;;;13.99;100.00;100580.44;4970426;28;20054;-69
2022/09/15 02:18:01;;;;;;;39.65;18.70;;;;;;;13.95;100.00;100577.13;4965350;28;20070;-69
2022/09/15 02:20:37;;;;;;;35.65;18.38;;;;;;;13.92;100.00;100581.91;4974800;28;20501;-70
2022/09/15 02:23:19;;;;;;;40.10;18.17;;;;;;;13.94;100.00;100577.28;4972001;28;20483;-70
2022/09/15 02:26:03;;;;;;;42.13;20.08;;;;;;;13.94;100.00;100575.44;4976071;28;20042;-68
2022/09/15 02:28:35;;;;;;;39.75;17.80;;;;;;;14.01;100.00;100581.19;4970884;28;20145;-70
2022/09/15 02:31:03;;;;;;;37.83;18.02;;;;;;;14.07;100.00;100585.19;4972228;28;20070;-70
2022/09/15 02:33:34;;;;;;;35.75;18.73;;;;;;;13.99;100.00;100580.44;4973771;28;20691;-70
2022/09/15 02:36:02;;;;;;;36.47;17.08;;;;;;;14.05;100.00;100587.13;4974973;28;20058;-69
2022/09/15 02:38:33;;;;;;;39.88;19.17;;;;;;;14.12;100.00;100585.66;4978355;28;20073;-68
2022/09/15 02:41:00;;;;;;;39.60;17.73;;;;;;;14.18;100.00;100585.13;4970690;28;20134;-70
2022/09/15 02:43:25;;;;;;;43.92;18.95;;;;;;;14.14;100.00;100583.69;4972548;28;20481;-69
2022/09/15 02:45:52;;;;;;;39.90;17.58;;;;;;;14.08;100.00;100585.03;4951484;28;20039;-69
2022/09/15 02:48:18;;;;;;;37.35;18.25;;;;;;;14.04;100.00;100593.47;4966816;28;20496;-70
2022/09/15 02:50:44;;;;;;;45.63;19.52;;;;;;;14.01;100.00;100599.94;4985998;28;20122;-69
2022/09/15 02:53:09;;;;;;;38.15;17.55;;;;;;;14.02;100.00;100590.91;4976273;28;20355;-69
2022/09/15 02:55:35;;;;;;;37.60;17.38;;;;;;;13.86;100.00;100591.31;4969830;28;20050;-69
2022/09/15 02:58:00;;;;;;;37.40;17.73;;;;;;;13.63;100.00;100590.47;4970473;28;20046;-69
2022/09/15 03:00:27;;;;;;;35.92;16.25;;;;;;;13.70;100.00;100596.19;4972392;28;20034;-70
2022/09/15 03:02:53;;;;;;;39.45;18.88;;;;;;;13.65;100.00;100601.06;4979057;28;20058;-69
2022/09/15 03:05:29;;;;;;;36.22;18.58;;;;;;;13.62;100.00;100599.50;4973153;28;20043;-70
2022/09/15 03:07:55;;;;;;;37.95;17.35;;;;;;;13.61;100.00;100596.94;4980137;28;20789;-67
2022/09/15 03:10:22;;;;;;;41.08;18.05;;;;;;;13.56;100.00;100602.69;4974161;28;20039;-71
2022/09/15 03:12:50;;;;;;;37.17;17.95;;;;;;;13.57;100.00;100601.69;4977597;28;20049;-69
2022/09/15 03:15:19;;;;;;;30.45;16.35;;;;;;;13.54;100.00;100601.94;4967426;28;20064;-69
2022/09/15 03:17:46;;;;;;;32.58;15.82;;;;;;;13.46;100.00;100602.56;4970354;28;20102;-69
2022/09/15 03:20:21;;;;;;;28.52;14.30;;;;;;;13.47;100.00;100612.28;4988794;28;20375;-68
2022/09/15 03:22:48;;;;;;;36.53;15.15;;;;;;;13.46;100.00;100605.22;4951064;28;20719;-68
2022/09/15 03:25:14;;;;;;;25.85;14.10;;;;;;;13.39;100.00;100606.66;4968341;28;20443;-70
2022/09/15 03:27:41;;;;;;;30.48;15.43;;;;;;;13.36;100.00;100614.97;4983214;28;20194;-71
2022/09/15 03:30:08;;;;;;;26.65;12.57;;;;;;;13.37;100.00;100615.81;4951388;28;20101;-70
2022/09/15 03:32:34;;;;;;;25.60;12.38;;;;;;;13.40;100.00;100608.41;4966386;28;20046;-69
2022/09/15 03:35:00;;;;;;;30.83;13.65;;;;;;;13.36;100.00;100612.28;4971276;28;20713;-70
2022/09/15 03:37:26;;;;;;;23.20;12.68;;;;;;;13.38;100.00;100609.47;4968389;28;20042;-70
2022/09/15 03:39:52;;;;;;;23.52;13.63;;;;;;;13.42;100.00;100602.91;4965215;28;20866;-69
2022/09/15 03:42:20;;;;;;;21.77;11.98;;;;;;;13.46;100.00;100604.38;4967445;28;20089;-68
2022/09/15 03:44:46;;;;;;;22.88;12.02;;;;;;;13.46;100.00;100607.06;4969557;28;20034;-69
2022/09/15 03:47:11;;;;;;;22.05;12.38;;;;;;;13.53;100.00;100607.41;4967614;28;20058;-69
2022/09/15 03:49:37;;;;;;;24.83;12.18;;;;;;;13.54;100.00;100611.78;4967689;28;20034;-68
2022/09/15 03:52:03;;;;;;;22.02;11.85;;;;;;;13.44;100.00;100612.50;4966283;28;20785;-70
2022/09/15 03:54:30;;;;;;;21.40;11.95;;;;;;;13.44;100.00;100611.66;4966979;28;20407;-69
2022/09/15 03:56:56;;;;;;;29.88;12.55;;;;;;;13.55;100.00;100614.34;4972251;28;20035;-69
2022/09/15 03:59:21;;;;;;;22.35;11.70;;;;;;;13.58;100.00;100614.09;4968870;28;20042;-68
2022/09/15 04:01:47;;;;;;;22.20;12.25;;;;;;;13.58;100.00;100616.78;4963887;28;20035;-68
2022/09/15 04:04:13;;;;;;;27.42;13.45;;;;;;;13.55;100.00;100613.50;4983123;28;20038;-69
2022/09/15 04:06:39;;;;;;;21.52;11.38;;;;;;;13.57;100.00;100615.09;4972161;28;20502;-70
2022/09/15 04:09:05;;;;;;;23.25;12.15;;;;;;;13.58;100.00;100613.25;4975171;28;20479;-70
2022/09/15 04:11:31;;;;;;;16.20;10.32;;;;;;;13.57;100.00;100611.56;4970235;28;20042;-70
2022/09/15 04:13:56;;;;;;;23.23;10.77;;;;;;;13.62;100.00;100610.22;4970445;28;20061;-70
2022/09/15 04:16:26;;;;;;;22.65;10.15;;;;;;;13.52;100.00;100613.75;4965478;28;20031;-70
2022/09/15 04:18:52;;;;;;;21.17;10.30;;;;;;;13.58;100.00;100622.16;4969959;28;20042;-69
2022/09/15 04:21:21;;;;;;;17.15;9.85;;;;;;;13.63;100.00;100621.78;4951927;28;20062;-69
2022/09/15 04:23:50;;;;;;;16.40;9.63;;;;;;;13.64;100.00;100615.44;4966103;28;20045;-69
2022/09/15 04:26:31;;;;;;;21.08;10.50;;;;;;;13.70;100.00;100626.53;4972072;28;20054;-69
2022/09/15 04:28:57;;;;;;;18.33;9.35;;;;;;;13.69;100.00;100624.81;4969370;28;20038;-70
2022/09/15 04:31:23;;;;;;;24.90;9.88;;;;;;;13.70;100.00;100629.22;4967630;28;20046;-69
2022/09/15 04:33:51;;;;;;;22.40;10.10;;;;;;;13.76;100.00;100622.53;4967643;28;20062;-68
2022/09/15 04:36:20;;;;;;;21.45;10.10;;;;;;;13.74;100.00;100617.25;4978932;28;20094;-68
2022/09/15 04:38:46;;;;;;;20.98;9.50;;;;;;;13.74;100.00;100625.28;4967026;28;20042;-70
2022/09/15 04:41:13;;;;;;;20.15;11.10;;;;;;;13.77;100.00;100618.84;4972223;28;20046;-68
2022/09/15 04:43:39;;;;;;;23.55;11.40;;;;;;;13.78;100.00;100619.69;4968526;28;20045;-70
2022/09/15 04:46:05;;;;;;;27.92;11.43;;;;;;;13.82;100.00;100611.28;4965197;28;20081;-69
2022/09/15 04:48:31;;;;;;;24.25;10.52;;;;;;;13.80;100.00;100617.75;4973170;28;20619;-71
2022/09/15 04:51:03;;;;;;;20.58;9.85;;;;;;;13.73;100.00;100615.56;4967597;28;20042;-69
2022/09/15 04:53:29;;;;;;;19.58;10.82;;;;;;;13.74;100.00;100613.72;4967533;28;20042;-69
2022/09/15 04:56:07;;;;;;;20.40;11.38;;;;;;;13.66;100.00;100611.69;4966682;28;20049;-69
2022/09/15 04:58:41;;;;;;;21.77;11.38;;;;;;;13.73;100.00;100612.03;4971393;28;20765;-68
2022/09/15 05:01:09;;;;;;;20.30;9.45;;;;;;;13.78;100.00;100614.34;4966132;28;20053;-68
2022/09/15 05:03:36;;;;;;;20.75;11.05;;;;;;;13.81;100.00;100616.78;4976126;28;20034;-68
2022/09/15 05:06:04;;;;;;;20.80;10.38;;;;;;;13.69;100.00;100614.09;4969941;28;20051;-69
2022/09/15 05:08:30;;;;;;;22.95;10.88;;;;;;;13.69;100.00;100621.28;4969571;28;20066;-67
2022/09/15 05:11:00;;;;;;;21.48;10.57;;;;;;;13.74;100.00;100616.41;4967022;28;20030;-70
2022/09/15 05:13:26;;;;;;;20.08;10.13;;;;;;;13.76;100.00;100616.31;4967460;28;20073;-70
2022/09/15 05:15:54;;;;;;;19.55;9.93;;;;;;;13.74;100.00;100619.94;4983053;28;20489;-70
2022/09/15 05:18:20;;;;;;;33.60;10.48;;;;;;;13.83;100.00;100614.81;4965538;28;20122;-70
2022/09/15 05:20:45;;;;;;;20.05;10.60;;;;;;;13.81;100.00;100617.63;4949822;28;20049;-69
2022/09/15 05:23:12;;;;;;;21.27;11.15;;;;;;;13.83;100.00;100622.88;4970440;28;20141;-69
2022/09/15 05:25:39;;;;;;;22.25;11.10;;;;;;;13.85;100.00;100621.75;4969883;28;20057;-69
2022/09/15 05:28:06;;;;;;;20.75;10.30;;;;;;;13.84;100.00;100616.53;4971651;28;20031;-71
2022/09/15 05:30:31;;;;;;;22.13;9.60;;;;;;;13.76;100.00;100616.31;4973770;28;20081;-69
2022/09/15 05:32:57;;;;;;;22.33;10.05;;;;;;;13.77;100.00;100620.69;4969400;28;20042;-70
2022/09/15 05:35:22;;;;;;;18.30;10.10;;;;;;;13.91;100.00;100620.44;4969550;28;20550;-70
2022/09/15 05:37:48;;;;;;;18.13;10.43;;;;;;;14.07;100.00;100615.53;4967053;28;20034;-69
2022/09/15 05:40:14;;;;;;;23.77;10.55;;;;;;;14.18;100.00;100618.16;4964173;28;20573;-69
2022/09/15 05:42:40;;;;;;;22.17;10.25;;;;;;;14.20;100.00;100615.34;4967743;28;20826;-68
2022/09/15 05:45:07;;;;;;;25.02;11.75;;;;;;;14.01;100.00;100618.72;4939988;28;20054;-68
2022/09/15 05:47:33;;;;;;;17.77;10.75;;;;;;;14.19;100.00;100617.19;4967800;28;20121;-69
2022/09/15 05:49:58;;;;;;;23.73;10.90;;;;;;;14.14;100.00;100624.75;4970681;28;20046;-68
2022/09/15 05:52:24;;;;;;;16.63;10.15;;;;;;;14.24;100.00;100628.38;4966392;28;20593;-69
2022/09/15 05:54:50;;;;;;;28.42;11.07;;;;;;;14.19;100.00;100619.00;4952367;28;20049;-69
2022/09/15 05:57:16;;;;;;;18.65;10.32;;;;;;;14.30;100.00;100629.72;4970387;28;20078;-69
2022/09/15 05:59:42;;;;;;;19.70;10.35;;;;;;;14.32;100.00;100632.28;4981587;28;20659;-69
2022/09/15 06:02:10;;;;;;;21.75;9.77;;;;;;;14.38;100.00;100631.78;4983567;28;20109;-70
2022/09/15 06:04:36;;;;;;;17.88;8.68;;;;;;;14.35;100.00;100640.06;4984739;28;20181;-68
2022/09/15 06:07:01;;;;;;;31.58;9.68;;;;;;;14.40;100.00;100637.84;4981416;28;20039;-68
2022/09/15 06:09:27;;;;;;;18.05;9.80;;;;;;;14.43;100.00;100640.28;4971844;28;20487;-68
2022/09/15 06:11:52;;;;;;;15.68;9.68;;;;;;;14.47;100.00;100644.44;4974985;28;20038;-69
2022/09/15 06:14:18;;;;;;;20.75;10.00;;;;;;;14.45;100.00;100651.72;4975422;28;20043;-69
2022/09/15 06:16:43;;;;;;;14.55;8.98;;;;;;;14.60;100.00;100653.19;4970510;28;20039;-69
2022/09/15 06:19:09;;;;;;;18.73;9.90;;;;;;;14.66;100.00;100655.38;4967265;28;20434;-69
2022/09/15 06:21:34;;;;;;;15.18;8.23;;;;;;;14.61;100.00;100656.72;4966917;28;20035;-70
2022/09/15 06:24:02;;;;;;;21.55;9.95;;;;;;;14.59;100.00;100658.69;4966582;28;20041;-68
2022/09/15 06:26:28;;;;;;;16.83;7.85;;;;;;;14.68;100.00;100653.41;4976339;28;20042;-68
2022/09/15 06:28:57;;;;;;;13.88;7.97;;;;;;;14.66;100.00;100654.50;4970830;28;20456;-69
2022/09/15 06:31:23;;;;;;;17.88;8.85;;;;;;;14.56;100.00;100654.44;4971951;28;20035;-70
2022/09/15 06:33:51;;;;;;;16.40;8.00;;;;;;;14.70;100.00;100655.94;4966341;28;20035;-70
2022/09/15 06:36:17;;;;;;;18.40;7.82;;;;;;;14.85;100.00;100660.03;4973621;28;20053;-69
2022/09/15 06:38:44;;;;;;;17.98;7.28;;;;;;;15.01;100.00;100659.59;4967103;28;20039;-68
2022/09/15 06:41:10;;;;;;;17.27;7.95;;;;;;;15.20;100.00;100659.72;4970461;28;20077;-69
2022/09/15 06:43:36;;;;;;;12.85;7.00;;;;;;;15.39;100.00;100659.00;4940100;28;20453;-72
2022/09/15 06:46:07;;;;;;;13.18;5.88;;;;;;;15.46;100.00;100665.56;4969633;28;20050;-69
2022/09/15 06:48:34;;;;;;;11.32;5.85;;;;;;;15.54;100.00;100660.34;4968758;28;20492;-69
2022/09/15 06:51:01;;;;;;;18.42;6.75;;;;;;;15.61;100.00;100657.97;4975779;28;20084;-69
2022/09/15 06:53:31;;;;;;;14.88;7.60;;;;;;;15.64;100.00;100668.50;4984833;28;20069;-69
2022/09/15 06:56:10;;;;;;;18.98;7.63;;;;;;;15.92;100.00;100668.78;4988923;28;20030;-69
2022/09/15 06:58:38;;;;;;;14.00;7.28;;;;;;;15.89;100.00;100677.09;4972232;28;20109;-70
2022/09/15 07:01:09;;;;;;;14.73;7.25;;;;;;;15.88;100.00;100676.25;4975197;28;20034;-71
2022/09/15 07:03:35;;;;;;;12.10;6.72;;;;;;;15.63;100.00;100682.03;4973453;28;20043;-68
2022/09/15 07:06:02;;;;;;;15.18;7.13;;;;;;;15.60;100.00;100680.47;4972721;28;20086;-70
2022/09/15 07:08:29;;;;;;;13.18;6.20;;;;;;;15.75;100.00;100679.16;4971710;28;20625;-70
2022/09/15 07:10:55;;;;;;;14.45;6.53;;;;;;;15.57;100.00;100685.28;4981603;28;20049;-72
2022/09/15 07:13:21;;;;;;;14.48;6.00;;;;;;;15.73;100.00;100686.50;4970066;28;20043;-70
2022/09/15 07:15:56;;;;;;;13.32;6.15;;;;;;;15.93;100.00;100692.81;4974027;28;20034;-70
2022/09/15 07:18:22;;;;;;;13.98;6.25;;;;;;;16.17;100.00;100688.94;4969308;28;20039;-69
2022/09/15 07:20:48;;;;;;;10.75;5.60;;;;;;;16.29;100.00;100685.16;4984662;28;20138;-72
2022/09/15 07:23:14;;;;;;;12.32;4.90;;;;;;;16.36;100.00;100685.44;4974350;28;20053;-71
2022/09/15 07:25:44;;;;;;;11.35;4.32;;;;;;;16.41;100.00;100685.88;4977061;28;20042;-69
2022/09/15 07:28:10;;;;;;;9.35;4.55;;;;;;;16.50;100.00;100682.34;4973507;28;20039;-69
2022/09/15 07:30:37;;;;;;;9.05;4.40;;;;;;;16.57;100.00;100696.97;4975227;28;20065;-68
2022/09/15 07:33:04;;;;;;;8.93;4.22;;;;;;;16.57;100.00;100695.13;4967207;28;20035;-71
2022/09/15 07:35:29;;;;;;;10.57;4.40;;;;;;;16.72;100.00;100705.53;4965771;28;20150;-69
2022/09/15 07:37:55;;;;;;;6.45;3.72;;;;;;;16.96;100.00;100703.25;4974435;28;20065;-69
2022/09/15 07:40:20;;;;;;;6.72;3.58;;;;;;;17.17;100.00;100700.44;4970509;28;20038;-70
2022/09/15 07:42:46;;;;;;;10.95;3.40;;;;;;;17.38;100.00;100700.25;4972901;28;20066;-69
2022/09/15 07:45:15;;;;;;;8.48;3.22;;;;;;;17.24;100.00;100709.63;4966505;28;20046;-69
2022/09/15 07:47:40;;;;;;;9.63;3.65;;;;;;;17.68;99.86;100718.06;4967187;28;20050;-69
2022/09/15 07:50:06;;;;;;;9.07;3.20;;;;;;;17.95;97.43;100709.19;4966957;28;20049;-68
2022/09/15 07:52:33;;;;;;;10.35;2.67;;;;;;;17.73;93.79;100715.81;4970029;28;20473;-68
2022/09/15 07:54:59;;;;;;;4.50;2.88;;;;;;;17.76;96.68;100720.91;4974832;28;20045;-67
2022/09/15 07:57:24;;;;;;;11.20;3.42;;;;;;;17.67;94.91;100728.97;4976592;28;20042;-71
2022/09/15 07:59:50;;;;;;;9.65;3.63;;;;;;;17.61;94.94;100723.16;4965315;28;20128;-70
2022/09/15 08:02:17;;;;;;;13.63;3.58;;;;;;;17.55;95.81;100726.44;4971769;28;20045;-69
2022/09/15 08:04:43;;;;;;;8.43;3.72;;;;;;;17.38;97.30;100724.50;4967751;28;20170;-71
2022/09/15 08:07:09;;;;;;;12.02;3.55;;;;;;;17.56;97.56;100730.00;4968948;28;20102;-67
2022/09/15 08:09:40;;;;;;;10.13;3.13;;;;;;;17.55;94.18;100739.09;4983823;28;20039;-70
2022/09/15 08:12:07;;;;;;;15.40;3.53;;;;;;;18.11;91.33;100731.00;4975048;28;20089;-69
2022/09/15 08:14:33;;;;;;;7.95;2.22;;;;;;;18.32;85.83;100738.88;4966211;28;20105;-70
2022/09/15 08:17:00;;;;;;;10.13;2.67;;;;;;;17.67;93.76;100743.34;4970447;28;20043;-68
2022/09/15 08:19:29;;;;;;;8.52;2.70;;;;;;;17.28;90.30;100751.47;4977417;28;20030;-70
2022/09/15 08:21:55;;;;;;;5.07;1.58;;;;;;;17.17;93.61;100754.31;4970284;28;20066;-68
2022/09/15 08:24:21;;;;;;;8.45;2.75;;;;;;;17.04;95.81;100757.28;4964183;28;20031;-69
2022/09/15 08:26:50;;;;;;;5.18;1.90;;;;;;;16.96;93.37;100762.50;4969617;28;20042;-68
2022/09/15 08:29:16;;;;;;;4.38;2.42;;;;;;;16.97;95.95;100760.69;4966520;28;20042;-68
2022/09/15 08:31:43;;;;;;;4.10;1.48;;;;;;;16.92;94.43;100762.94;4965923;28;20084;-68
2022/09/15 08:34:11;;;;;;;11.40;1.77;;;;;;;16.96;95.29;100764.34;4956673;28;20072;-72
2022/09/15 08:36:37;;;;;;;6.75;1.92;;;;;;;16.72;98.66;100759.38;4976317;28;20077;-68
2022/09/15 08:39:03;;;;;;;13.23;1.88;;;;;;;16.24;98.67;100771.66;4973346;28;20820;-68
2022/09/15 08:41:38;;;;;;;4.10;1.42;;;;;;;16.49;100.00;100777.56;4971541;28;20034;-71
2022/09/15 08:44:09;;;;;;;8.48;2.28;;;;;;;16.73;99.61;100770.00;4963116;28;20288;-69
2022/09/15 08:47:09;;;;;;;7.60;1.60;;;;;;;16.72;100.00;100767.47;4976711;28;20060;-69
2022/09/15 08:49:51;;;;;;;7.32;1.95;;;;;;;17.48;96.31;100770.34;4968409;28;20049;-69
2022/09/15 08:52:48;;;;;;;8.63;1.83;;;;;;;17.26;93.91;100777.69;4978316;28;20113;-69
2022/09/15 08:55:28;;;;;;;5.53;1.60;;;;;;;16.95;97.97;100776.13;4976572;28;20038;-69
2022/09/15 08:57:54;;;;;;;5.03;1.50;;;;;;;17.72;91.85;100781.50;4975442;28;20050;-69
2022/09/15 09:00:19;;;;;;;7.35;1.55;;;;;;;18.17;90.63;100783.53;4980704;28;20177;-70
2022/09/15 09:03:21;;;;;;;5.13;1.40;;;;;;;18.60;83.38;100784.75;4975950;28;20574;-69
2022/09/15 09:06:04;;;;;;;4.15;1.48;;;;;;;18.32;85.44;100787.47;4972622;28;20042;-70
2022/09/15 09:08:48;;;;;;;6.60;1.52;;;;;;;18.54;84.01;100788.06;4976079;28;20082;-68
2022/09/15 09:11:24;;;;;;;4.25;1.40;;;;;;;18.57;83.74;100791.28;4965514;28;20096;-68
2022/09/15 09:14:13;;;;;;;10.30;1.77;;;;;;;18.71;81.76;100784.56;4950102;28;20849;-69
2022/09/15 09:17:26;;;;;;;4.97;1.15;;;;;;;18.66;83.34;100784.16;4969883;28;20518;-72
2022/09/15 09:20:13;;;;;;;6.22;1.58;;;;;;;18.75;79.74;100793.25;4971319;28;20129;-69
2022/09/15 09:22:42;;;;;;;3.70;1.20;;;;;;;19.09;78.21;100790.75;4963994;28;20039;-69
2022/09/15 09:25:13;;;;;;;5.35;1.00;;;;;;;19.07;78.50;100795.44;4952409;28;20030;-69
2022/09/15 09:27:39;;;;;;;4.18;0.90;;;;;;;19.21;79.49;100792.19;4970968;28;20042;-69
2022/09/15 09:30:11;;;;;;;4.97;1.10;;;;;;;18.95;79.76;100793.97;4967911;28;20041;-69
2022/09/15 09:33:03;;;;;;;7.47;2.38;;;;;;;19.26;74.57;100787.19;4967118;28;20072;-68
2022/09/15 09:35:40;;;;;;;7.15;1.45;;;;;;;19.33;74.73;100788.28;4963175;28;20042;-69
2022/09/15 09:38:08;;;;;;;2.28;0.68;;;;;;;19.31;76.48;100784.00;4986991;28;20489;-68
2022/09/15 09:40:38;;;;;;;7.47;1.17;;;;;;;19.49;76.29;100779.44;4967647;28;20445;-69
2022/09/15 09:43:04;;;;;;;4.82;0.98;;;;;;;19.36;72.73;100792.50;4974997;28;20035;-68
2022/09/15 09:45:29;;;;;;;4.85;1.00;;;;;;;19.53;71.96;100786.25;4964248;28;20321;-70
2022/09/15 09:48:01;;;;;;;8.48;1.15;;;;;;;19.92;70.29;100788.56;4964688;28;20030;-68
2022/09/15 09:50:32;;;;;;;;;;;;;;;19.69;72.29;100782.84;4974707;28;20031;-67
2022/09/15 09:52:58;;;;;;;5.45;1.00;;;;;;;19.37;69.85;100778.81;4966707;28;19921;-69
2022/09/15 09:55:26;;;;;;;4.72;1.25;;;;;;;18.99;72.71;100788.09;4985346;28;20026;-70
2022/09/15 09:57:53;;;;;;;7.13;1.23;;;;;;;19.27;74.25;100790.72;4971220;28;20038;-68
2022/09/15 10:00:34;;;;;;;8.63;1.98;;;;;;;19.57;70.67;100782.19;4966143;28;20050;-69
2022/09/15 10:03:18;;;;;;;8.38;1.10;;;;;;;19.56;69.84;100787.78;4968351;28;20042;-69
2022/09/15 10:05:59;;;;;;;6.32;0.80;;;;;;;19.59;71.04;100780.25;4977751;28;20073;-71
2022/09/15 10:08:24;;;;;;;4.32;1.50;;;;;;;19.50;67.94;100781.16;4975811;28;20445;-71
2022/09/15 10:10:57;;;;;;;7.93;1.42;;;;;;;19.37;70.37;100789.63;4970748;28;20186;-69
2022/09/15 10:13:22;;;;;;;14.32;1.40;;;;;;;19.03;69.07;100785.97;4975120;28;20109;-70
2022/09/15 10:15:54;;;;;;;7.90;1.65;;;;;;;19.38;69.52;100787.81;4964856;28;20030;-70
2022/09/15 10:18:40;;;;;;;3.88;0.70;;;;;;;19.35;69.89;100775.44;4980024;28;20094;-70
2022/09/15 10:21:08;;;;;;;4.20;0.85;;;;;;;19.23;71.01;100779.41;4965184;28;20038;-70
2022/09/15 10:23:35;;;;;;;1.35;1.08;;;;;;;18.94;72.38;100785.00;4978854;28;20082;-67
2022/09/15 10:26:16;;;;;;;1.98;0.73;;;;;;;19.09;72.99;100771.81;4986638;28;20043;-68
2022/09/15 10:28:43;;;;;;;9.40;0.90;;;;;;;19.70;72.94;100781.84;4979907;28;20068;-68
2022/09/15 10:31:14;;;;;;;2.85;1.10;;;;;;;19.63;71.82;100773.50;4951309;28;20153;-69
2022/09/15 10:33:43;;;;;;;4.45;1.15;;;;;;;19.54;70.32;100773.56;4981606;28;20066;-70
2022/09/15 10:36:39;;;;;;;8.43;1.42;;;;;;;19.39;70.71;100767.88;4963050;28;20065;-70
2022/09/15 10:39:22;;;;;;;4.53;1.25;;;;;;;19.11;74.96;100767.09;4944164;28;20057;-69
2022/09/15 10:42:19;;;;;;;4.78;1.35;;;;;;;18.77;70.19;100775.00;4971186;28;20050;-69
2022/09/15 10:44:58;;;;;;;3.38;1.08;;;;;;;18.80;69.34;100780.13;4978217;28;20062;-70
2022/09/15 10:47:45;;;;;;;3.65;1.05;;;;;;;18.58;69.82;100778.66;4983169;28;20050;-70
2022/09/15 10:50:18;;;;;;;3.15;1.23;;;;;;;18.51;71.34;100782.97;4975149;28;20090;-69
2022/09/15 10:53:39;;;;;;;4.05;0.90;;;;;;;18.40;71.38;100784.00;4982715;28;20053;-70
2022/09/15 10:56:22;;;;;;;6.00;1.75;;;;;;;18.31;70.48;100790.28;4949888;28;20123;-73
2022/09/15 10:59:21;;;;;;;3.33;0.85;;;;;;;17.72;71.65;100786.03;4965678;28;20094;-67
2022/09/15 11:02:14;;;;;;;4.43;0.88;;;;;;;17.72;73.26;100786.91;4964097;28;20141;-68
2022/09/15 11:05:03;;;;;;;;;;;;;;;17.74;75.00;100790.34;4958082;28;20070;-70
2022/09/15 11:07:50;;;;;;;3.95;0.90;;;;;;;17.75;76.26;100789.34;4930604;29;19919;-67
2022/09/15 11:10:36;;;;;;;3.97;1.15;;;;;;;17.72;74.71;100786.03;4930446;29;20063;-70
2022/09/15 11:13:21;;;;;;;9.45;1.05;;;;;;;17.97;77.74;100789.97;4911578;29;20052;-68
2022/09/15 11:15:53;;;;;;;7.65;0.85;;;;;;;17.93;81.61;100794.00;4930902;29;20156;-70
2022/09/15 11:18:37;;;;;;;2.47;0.80;;;;;;;18.18;78.73;100790.66;4920587;29;21138;-70
2022/09/15 11:21:21;;;;;;;6.00;1.08;;;;;;;18.42;76.14;100787.41;4931997;29;20499;-67
2022/09/15 11:23:57;;;;;;;2.28;0.88;;;;;;;18.98;75.15;100777.47;4914956;29;20410;-70
2022/09/15 11:26:32;;;;;;;2.55;0.82;;;;;;;18.90;73.05;100775.50;4926664;29;20098;-68